Time;durP1;ratioP1;P1;durP2;ratioP2;P2;SDS_P1;SDS_P2;PMS_P1;PMS_P2;Temp;Humidity;BMP_temperature;BMP_pressure;BME280_temperature;BME280_humidity;BME280_pressure;Samples;Min_cycle;Max_cycle;Signal;HPM_P1;HPM_P2
2023/01/21 00:01:57;;;;;;;9.87;6.23;;;;;;;;;;5064585;28;20998;-62
2023/01/21 00:04:26;;;;;;;9.97;7.90;;;;;;;;;;5075448;28;20526;-62
2023/01/21 00:06:55;;;;;;;13.63;8.83;;;;;;;;;;5073443;28;20472;-62
2023/01/21 00:09:23;;;;;;;9.33;6.87;;;;;;;;;;5068804;28;20798;-62
2023/01/21 00:11:51;;;;;;;15.17;7.90;;;;;;;;;;5076638;28;20432;-62
2023/01/21 00:14:19;;;;;;;12.40;7.33;;;;;;;;;;5076267;28;20891;-62
2023/01/21 00:16:47;;;;;;;12.80;8.40;;;;;;;;;;5079251;28;20429;-62
2023/01/21 00:19:15;;;;;;;14.47;7.87;;;;;;;;;;5079084;28;20444;-62
2023/01/21 00:21:45;;;;;;;12.70;8.47;;;;;;;;;;5074176;28;20448;-62
2023/01/21 00:24:13;;;;;;;13.40;8.30;;;;;;;;;;5073153;28;20532;-62
2023/01/21 00:26:41;;;;;;;11.60;7.67;;;;;;;;;;5068569;28;20450;-62
2023/01/21 00:29:10;;;;;;;14.63;8.47;;;;;;;;;;5069384;28;20940;-63
2023/01/21 00:31:38;;;;;;;15.17;9.50;;;;;;;;;;5070010;28;20469;-62
2023/01/21 00:34:07;;;;;;;9.90;7.57;;;;;;;;;;5070723;28;20537;-63
2023/01/21 00:36:35;;;;;;;11.63;7.83;;;;;;;;;;5076392;28;20471;-62
2023/01/21 00:39:08;;;;;;;10.67;7.67;;;;;;;;;;5069256;28;20449;-63
2023/01/21 00:41:37;;;;;;;11.03;6.80;;;;;;;;;;5078282;28;20455;-62
2023/01/21 00:44:05;;;;;;;12.67;7.10;;;;;;;;;;5079891;28;20459;-63
2023/01/21 00:46:33;;;;;;;10.50;7.00;;;;;;;;;;5075666;28;20440;-62
2023/01/21 00:49:02;;;;;;;8.83;6.90;;;;;;;;;;5070712;28;20544;-62
2023/01/21 00:51:30;;;;;;;9.87;6.83;;;;;;;;;;5076428;28;20790;-63
2023/01/21 00:53:58;;;;;;;9.73;7.00;;;;;;;;;;5079244;28;20486;-63
2023/01/21 00:56:27;;;;;;;10.37;6.90;;;;;;;;;;5070235;28;20486;-63
2023/01/21 00:58:56;;;;;;;10.13;6.90;;;;;;;;;;5076948;28;20467;-63
2023/01/21 01:01:25;;;;;;;10.17;7.67;;;;;;;;;;5079180;28;20440;-62
2023/01/21 01:03:53;;;;;;;12.37;8.07;;;;;;;;;;5076300;28;20523;-62
2023/01/21 01:06:23;;;;;;;11.20;7.90;;;;;;;;;;5075874;28;20955;-63
2023/01/21 01:08:51;;;;;;;12.00;8.00;;;;;;;;;;5078728;28;20432;-63
2023/01/21 01:11:20;;;;;;;9.97;6.27;;;;;;;;;;5076587;28;20432;-62
2023/01/21 01:13:50;;;;;;;7.83;6.10;;;;;;;;;;5077777;28;20910;-63
2023/01/21 01:16:18;;;;;;;7.60;5.67;;;;;;;;;;5067416;28;20802;-63
2023/01/21 01:18:46;;;;;;;11.53;7.30;;;;;;;;;;5069731;28;20951;-63
2023/01/21 01:21:14;;;;;;;9.97;7.13;;;;;;;;;;5073796;28;20953;-62
2023/01/21 01:23:42;;;;;;;11.67;7.00;;;;;;;;;;5071620;28;20460;-62
2023/01/21 01:26:11;;;;;;;11.17;7.27;;;;;;;;;;5073324;28;20449;-62
2023/01/21 01:28:39;;;;;;;11.13;8.37;;;;;;;;;;5079054;28;20499;-62
2023/01/21 01:31:11;;;;;;;10.67;7.17;;;;;;;;;;5079066;28;20444;-62
2023/01/21 01:33:39;;;;;;;10.43;7.40;;;;;;;;;;5079162;28;21046;-62
2023/01/21 01:36:08;;;;;;;13.50;7.50;;;;;;;;;;5078734;28;20476;-62
2023/01/21 01:38:36;;;;;;;9.23;6.27;;;;;;;;;;5079170;28;20520;-62
2023/01/21 01:41:04;;;;;;;10.00;7.43;;;;;;;;;;5079193;28;20449;-62
2023/01/21 01:43:47;;;;;;;12.07;7.10;;;;;;;;;;5078887;28;20488;-62
2023/01/21 01:46:17;;;;;;;8.37;5.77;;;;;;;;;;5078722;28;20445;-62
2023/01/21 01:48:47;;;;;;;8.00;6.33;;;;;;;;;;5079057;28;20440;-62
2023/01/21 01:51:16;;;;;;;8.90;6.67;;;;;;;;;;5078609;28;20540;-62
2023/01/21 01:53:46;;;;;;;6.87;5.80;;;;;;;;;;5079171;28;20488;-62
2023/01/21 01:56:15;;;;;;;10.77;7.53;;;;;;;;;;5078850;28;20440;-63
2023/01/21 01:58:43;;;;;;;10.10;7.30;;;;;;;;;;5078617;28;20531;-63
2023/01/21 02:01:11;;;;;;;10.10;7.07;;;;;;;;;;5078091;28;20472;-63
2023/01/21 02:03:49;;;;;;;9.20;6.63;;;;;;;;;;5078719;28;20496;-63
2023/01/21 02:06:17;;;;;;;10.93;5.80;;;;;;;;;;5078305;28;20861;-63
2023/01/21 02:08:46;;;;;;;9.63;6.87;;;;;;;;;;5078827;28;20448;-62
2023/01/21 02:11:15;;;;;;;8.20;6.83;;;;;;;;;;5078597;28;20451;-63
2023/01/21 02:13:44;;;;;;;11.43;6.73;;;;;;;;;;5078138;28;20546;-62
2023/01/21 02:16:30;;;;;;;10.03;5.97;;;;;;;;;;5078177;28;20445;-63
2023/01/21 02:19:05;;;;;;;7.80;6.67;;;;;;;;;;5078504;28;20475;-63
2023/01/21 02:21:48;;;;;;;8.20;5.80;;;;;;;;;;5078213;28;20444;-63
2023/01/21 02:24:31;;;;;;;7.40;5.37;;;;;;;;;;5078363;28;20492;-63
2023/01/21 02:27:15;;;;;;;6.40;5.17;;;;;;;;;;5078082;28;20484;-63
2023/01/21 02:29:51;;;;;;;7.23;5.63;;;;;;;;;;5078506;28;20448;-63
2023/01/21 02:32:43;;;;;;;7.93;5.17;;;;;;;;;;5076791;28;20444;-63
2023/01/21 02:35:16;;;;;;;7.33;5.70;;;;;;;;;;5077678;28;20495;-63
2023/01/21 02:37:47;;;;;;;8.97;6.03;;;;;;;;;;5078259;28;20470;-63
2023/01/21 02:40:19;;;;;;;7.67;5.43;;;;;;;;;;5078167;28;20472;-63
2023/01/21 02:42:48;;;;;;;7.07;6.07;;;;;;;;;;5077847;28;20823;-63
2023/01/21 02:45:22;;;;;;;8.63;5.87;;;;;;;;;;5078141;28;20475;-63
2023/01/21 02:47:53;;;;;;;8.60;5.63;;;;;;;;;;5077692;28;20440;-63
2023/01/21 02:50:24;;;;;;;6.97;6.27;;;;;;;;;;5078037;28;20512;-63
2023/01/21 02:52:56;;;;;;;8.10;5.77;;;;;;;;;;5077830;28;20471;-63
2023/01/21 02:55:26;;;;;;;9.63;6.47;;;;;;;;;;5078094;28;20491;-63
2023/01/21 02:57:56;;;;;;;7.77;5.90;;;;;;;;;;5078131;28;20451;-63
2023/01/21 03:00:26;;;;;;;7.73;6.53;;;;;;;;;;5077691;28;20891;-63
2023/01/21 03:03:11;;;;;;;7.97;6.10;;;;;;;;;;5077195;28;20464;-63
2023/01/21 03:05:49;;;;;;;8.77;5.70;;;;;;;;;;5077475;28;21014;-63
2023/01/21 03:08:20;;;;;;;9.10;5.50;;;;;;;;;;5077973;28;20475;-63
2023/01/21 03:10:50;;;;;;;8.77;5.47;;;;;;;;;;5077524;28;20547;-63
2023/01/21 03:16:55;;;;;;;8.37;6.10;;;;;;;;;;5077538;28;21067;-63
2023/01/21 03:19:00;;;;;;;9.17;6.13;;;;;;;;;;5077448;28;20788;-63
2023/01/21 03:21:31;;;;;;;8.90;6.00;;;;;;;;;;5077728;28;20444;-63
2023/01/21 03:23:59;;;;;;;8.13;5.90;;;;;;;;;;5077663;28;20464;-62
2023/01/21 03:26:29;;;;;;;9.80;6.03;;;;;;;;;;5077559;28;20448;-63
2023/01/21 03:28:59;;;;;;;10.20;6.63;;;;;;;;;;5077426;28;20472;-63
2023/01/21 03:31:28;;;;;;;8.87;6.17;;;;;;;;;;5077112;28;20448;-63
2023/01/21 03:33:58;;;;;;;8.77;6.27;;;;;;;;;;5077200;28;20472;-63
2023/01/21 03:36:29;;;;;;;11.67;6.23;;;;;;;;;;5077206;28;20778;-63
2023/01/21 03:39:00;;;;;;;9.60;6.33;;;;;;;;;;5077739;28;20478;-63
2023/01/21 03:41:35;;;;;;;8.63;5.77;;;;;;;;;;5077146;28;20444;-63
2023/01/21 03:44:03;;;;;;;8.20;5.40;;;;;;;;;;5078707;28;20464;-63
2023/01/21 03:46:36;;;;;;;11.00;5.70;;;;;;;;;;5081042;28;20490;-63
2023/01/21 03:49:07;;;;;;;7.20;4.90;;;;;;;;;;5081125;28;20444;-63
2023/01/21 03:51:36;;;;;;;7.30;5.07;;;;;;;;;;5081059;28;20440;-63
2023/01/21 03:54:06;;;;;;;5.53;4.97;;;;;;;;;;5081133;28;20496;-62
2023/01/21 03:56:34;;;;;;;7.83;5.70;;;;;;;;;;5081233;28;20519;-63
2023/01/21 03:59:02;;;;;;;9.67;5.37;;;;;;;;;;5081214;28;20480;-63
2023/01/21 04:01:30;;;;;;;7.23;5.03;;;;;;;;;;5080452;28;20440;-62
2023/01/21 04:03:58;;;;;;;7.83;4.97;;;;;;;;;;5080905;28;20460;-62
2023/01/21 04:06:26;;;;;;;6.33;5.17;;;;;;;;;;5080708;28;20463;-63
2023/01/21 04:08:54;;;;;;;7.40;5.40;;;;;;;;;;5080653;28;20475;-63
2023/01/21 04:11:23;;;;;;;6.60;5.30;;;;;;;;;;5080665;28;21002;-62
2023/01/21 04:13:51;;;;;;;7.10;5.53;;;;;;;;;;5080745;28;20464;-62
2023/01/21 04:16:19;;;;;;;6.90;5.57;;;;;;;;;;5080503;28;20484;-63
2023/01/21 04:18:47;;;;;;;7.20;5.33;;;;;;;;;;5080498;28;20444;-63
2023/01/21 04:21:15;;;;;;;7.50;4.87;;;;;;;;;;5080634;28;20458;-63
2023/01/21 04:23:43;;;;;;;6.70;5.03;;;;;;;;;;5080336;28;20466;-63
2023/01/21 04:26:11;;;;;;;5.07;4.03;;;;;;;;;;5080455;28;20444;-63
2023/01/21 04:28:41;;;;;;;4.97;4.30;;;;;;;;;;5080629;28;20479;-63
2023/01/21 04:31:09;;;;;;;8.43;5.07;;;;;;;;;;5080313;28;20448;-62
2023/01/21 04:33:37;;;;;;;6.37;4.87;;;;;;;;;;5080280;28;20459;-63
2023/01/21 04:36:05;;;;;;;6.70;5.77;;;;;;;;;;5079899;28;20527;-63
2023/01/21 04:38:33;;;;;;;7.60;5.67;;;;;;;;;;5080180;28;20855;-63
2023/01/21 04:41:01;;;;;;;6.43;4.93;;;;;;;;;;5080550;28;20445;-63
2023/01/21 04:43:29;;;;;;;7.27;5.23;;;;;;;;;;5079976;28;20900;-63
2023/01/21 04:45:59;;;;;;;9.40;5.27;;;;;;;;;;5080019;28;21004;-62
2023/01/21 04:48:27;;;;;;;7.07;5.07;;;;;;;;;;5080376;28;20498;-63
2023/01/21 04:50:55;;;;;;;5.33;4.53;;;;;;;;;;5079914;28;20494;-62
2023/01/21 04:53:23;;;;;;;6.00;4.40;;;;;;;;;;5079890;28;20828;-62
2023/01/21 04:55:51;;;;;;;6.97;4.50;;;;;;;;;;5078653;28;20550;-62
2023/01/21 04:58:19;;;;;;;4.53;3.50;;;;;;;;;;5079885;28;20440;-62
2023/01/21 05:00:47;;;;;;;6.27;4.60;;;;;;;;;;5079691;28;20803;-62
2023/01/21 05:03:16;;;;;;;5.43;4.10;;;;;;;;;;5079540;28;20456;-63
2023/01/21 05:05:44;;;;;;;5.07;4.07;;;;;;;;;;5079774;28;20453;-62
2023/01/21 05:08:12;;;;;;;5.97;3.73;;;;;;;;;;5079941;28;20476;-63
2023/01/21 05:10:40;;;;;;;5.63;3.57;;;;;;;;;;5079686;28;20464;-63
2023/01/21 05:13:08;;;;;;;4.53;3.57;;;;;;;;;;5079770;28;20469;-63
2023/01/21 05:15:36;;;;;;;7.77;4.70;;;;;;;;;;5079390;28;20559;-62
2023/01/21 05:18:04;;;;;;;4.83;3.80;;;;;;;;;;5078612;28;20502;-63
2023/01/21 05:20:34;;;;;;;4.37;3.80;;;;;;;;;;5079669;28;20471;-63
2023/01/21 05:23:02;;;;;;;6.00;4.10;;;;;;;;;;5080267;28;20460;-63
2023/01/21 05:25:30;;;;;;;4.07;3.10;;;;;;;;;;5079594;28;20444;-63
2023/01/21 05:27:58;;;;;;;4.30;3.80;;;;;;;;;;5079559;28;20440;-62
2023/01/21 05:30:26;;;;;;;4.90;3.80;;;;;;;;;;5079427;28;20452;-62
2023/01/21 05:32:54;;;;;;;5.27;3.67;;;;;;;;;;5079072;28;20470;-63
2023/01/21 05:35:23;;;;;;;4.47;3.10;;;;;;;;;;5078754;28;20494;-62
2023/01/21 05:37:52;;;;;;;4.47;3.57;;;;;;;;;;5079181;28;20440;-62
2023/01/21 05:40:20;;;;;;;4.33;3.90;;;;;;;;;;5078939;28;20472;-62
2023/01/21 05:42:48;;;;;;;6.30;3.60;;;;;;;;;;5078805;28;20457;-62
2023/01/21 05:45:17;;;;;;;3.53;3.20;;;;;;;;;;5079149;28;20475;-62
2023/01/21 05:47:44;;;;;;;4.77;3.80;;;;;;;;;;5078845;28;20527;-62
2023/01/21 05:50:13;;;;;;;4.77;4.37;;;;;;;;;;5078948;28;20448;-62
2023/01/21 05:52:41;;;;;;;5.93;4.50;;;;;;;;;;5078680;28;20487;-62
2023/01/21 05:55:10;;;;;;;5.93;4.23;;;;;;;;;;5068651;28;20520;-62
2023/01/21 05:57:39;;;;;;;7.23;4.20;;;;;;;;;;5077493;28;20466;-62
2023/01/21 06:00:07;;;;;;;7.17;4.63;;;;;;;;;;5072002;28;20460;-62
2023/01/21 06:02:35;;;;;;;5.37;4.57;;;;;;;;;;5068040;28;20983;-62
2023/01/21 06:05:03;;;;;;;7.53;4.43;;;;;;;;;;5077263;28;21010;-62
2023/01/21 06:07:31;;;;;;;4.13;3.80;;;;;;;;;;5073859;28;20430;-62
2023/01/21 06:09:59;;;;;;;5.57;3.53;;;;;;;;;;5067702;28;20441;-62
2023/01/21 06:12:29;;;;;;;5.27;4.53;;;;;;;;;;5070523;28;20987;-62
2023/01/21 06:14:58;;;;;;;4.33;3.57;;;;;;;;;;5075089;28;20440;-62
2023/01/21 06:17:26;;;;;;;4.80;3.70;;;;;;;;;;5067824;28;20555;-62
2023/01/21 06:19:54;;;;;;;4.03;3.67;;;;;;;;;;5074097;28;20464;-62
2023/01/21 06:22:22;;;;;;;4.27;3.87;;;;;;;;;;5069553;28;20437;-63
2023/01/21 06:24:50;;;;;;;4.97;3.43;;;;;;;;;;5074075;28;20433;-62
2023/01/21 06:27:18;;;;;;;5.87;4.20;;;;;;;;;;5074383;28;20474;-62
2023/01/21 06:29:48;;;;;;;4.70;3.80;;;;;;;;;;5076991;28;20432;-62
2023/01/21 06:32:16;;;;;;;6.10;4.10;;;;;;;;;;5066074;28;20445;-62
2023/01/21 06:34:44;;;;;;;5.47;4.57;;;;;;;;;;5076716;28;20472;-62
2023/01/21 06:37:13;;;;;;;6.10;3.87;;;;;;;;;;5071281;28;20473;-62
2023/01/21 06:39:41;;;;;;;4.07;3.67;;;;;;;;;;5074017;28;20462;-63
2023/01/21 06:42:09;;;;;;;5.63;3.90;;;;;;;;;;5070027;28;20437;-62
2023/01/21 06:44:37;;;;;;;4.03;3.43;;;;;;;;;;5076472;28;20456;-63
2023/01/21 06:47:08;;;;;;;5.10;4.13;;;;;;;;;;5068128;28;20484;-62
2023/01/21 06:49:36;;;;;;;5.07;3.90;;;;;;;;;;5073473;28;20582;-62
2023/01/21 06:52:04;;;;;;;5.60;4.43;;;;;;;;;;5071617;28;20456;-62
2023/01/21 06:54:32;;;;;;;5.53;4.13;;;;;;;;;;5077876;28;20464;-62
2023/01/21 06:57:00;;;;;;;4.37;3.87;;;;;;;;;;5078013;28;20511;-62
2023/01/21 06:59:28;;;;;;;6.27;4.60;;;;;;;;;;5077676;28;20975;-62
2023/01/21 07:01:57;;;;;;;5.57;4.63;;;;;;;;;;5077418;28;20447;-62
2023/01/21 07:04:27;;;;;;;7.77;5.33;;;;;;;;;;5077405;28;20460;-62
2023/01/21 07:06:55;;;;;;;6.97;4.80;;;;;;;;;;5078072;28;20523;-62
2023/01/21 07:09:23;;;;;;;7.67;5.30;;;;;;;;;;5077893;28;20440;-62
2023/01/21 07:11:51;;;;;;;9.47;5.70;;;;;;;;;;5077919;28;20457;-59
2023/01/21 07:14:19;;;;;;;7.27;5.73;;;;;;;;;;5077557;28;20494;-60
2023/01/21 07:16:47;;;;;;;10.03;5.57;;;;;;;;;;5077279;28;20486;-59
2023/01/21 07:19:15;;;;;;;8.33;5.77;;;;;;;;;;5078946;28;20806;-59
2023/01/21 07:21:45;;;;;;;6.60;5.00;;;;;;;;;;5081587;28;20443;-59
2023/01/21 07:24:12;;;;;;;6.93;5.53;;;;;;;;;;5081784;28;20471;-60
2023/01/21 07:26:42;;;;;;;9.63;5.80;;;;;;;;;;5081948;28;20436;-59
2023/01/21 07:29:10;;;;;;;7.30;5.07;;;;;;;;;;5081497;28;20451;-62
2023/01/21 07:31:38;;;;;;;8.03;5.40;;;;;;;;;;5081149;28;20788;-62
2023/01/21 07:34:06;;;;;;;10.33;6.47;;;;;;;;;;5079337;28;20519;-61
2023/01/21 07:36:34;;;;;;;8.77;5.80;;;;;;;;;;5080719;28;20486;-61
2023/01/21 07:39:04;;;;;;;8.07;5.50;;;;;;;;;;5081144;28;20787;-62
2023/01/21 07:41:32;;;;;;;7.37;5.73;;;;;;;;;;5081480;28;20483;-61
2023/01/21 07:44:00;;;;;;;8.63;5.13;;;;;;;;;;5081170;28;20826;-62
2023/01/21 07:46:28;;;;;;;9.60;5.63;;;;;;;;;;5081141;28;20480;-62
2023/01/21 07:48:56;;;;;;;7.87;5.43;;;;;;;;;;5081273;28;20451;-62
2023/01/21 07:51:24;;;;;;;7.37;6.00;;;;;;;;;;5081225;28;20478;-62
2023/01/21 07:53:54;;;;;;;5.93;5.17;;;;;;;;;;5081280;28;20479;-62
2023/01/21 07:56:25;;;;;;;6.80;5.13;;;;;;;;;;5081072;28;20447;-62
2023/01/21 07:58:53;;;;;;;7.90;5.20;;;;;;;;;;5081267;28;20444;-62
2023/01/21 08:01:25;;;;;;;7.00;5.47;;;;;;;;;;5079560;28;20975;-62
2023/01/21 08:03:53;;;;;;;5.77;4.70;;;;;;;;;;5080908;28;20470;-62
2023/01/21 08:06:21;;;;;;;9.07;4.97;;;;;;;;;;5080872;28;20448;-62
2023/01/21 08:08:49;;;;;;;6.60;5.00;;;;;;;;;;5080972;28;20439;-62
2023/01/21 08:11:17;;;;;;;8.73;4.37;;;;;;;;;;5081071;28;20483;-62
2023/01/21 08:13:48;;;;;;;6.53;5.20;;;;;;;;;;5080482;28;20804;-62
2023/01/21 08:16:16;;;;;;;6.00;3.97;;;;;;;;;;5080276;28;20885;-62
2023/01/21 08:18:44;;;;;;;6.17;4.50;;;;;;;;;;5080344;28;20539;-62
2023/01/21 08:21:12;;;;;;;6.60;5.10;;;;;;;;;;5080404;28;20965;-62
2023/01/21 08:23:40;;;;;;;6.20;4.27;;;;;;;;;;5080441;28;20567;-62
2023/01/21 08:26:08;;;;;;;8.43;5.23;;;;;;;;;;5080550;28;20440;-62
2023/01/21 08:28:36;;;;;;;7.50;4.83;;;;;;;;;;5080325;28;20440;-62
2023/01/21 08:31:08;;;;;;;6.37;4.77;;;;;;;;;;5080330;28;20482;-62
2023/01/21 08:33:36;;;;;;;5.37;4.00;;;;;;;;;;5080754;28;20464;-62
2023/01/21 08:36:05;;;;;;;5.87;4.20;;;;;;;;;;5080082;28;20473;-62
2023/01/21 08:38:33;;;;;;;7.40;4.77;;;;;;;;;;5080841;28;21006;-62
2023/01/21 08:41:03;;;;;;;5.87;4.57;;;;;;;;;;5080192;28;20483;-63
2023/01/21 08:43:31;;;;;;;5.17;4.17;;;;;;;;;;5079935;28;20483;-61
2023/01/21 08:46:00;;;;;;;6.07;4.63;;;;;;;;;;5079939;28;20471;-62
2023/01/21 08:48:30;;;;;;;4.57;4.00;;;;;;;;;;5080249;28;20528;-61
2023/01/21 08:50:58;;;;;;;5.53;4.80;;;;;;;;;;5080025;28;20527;-61
2023/01/21 08:53:26;;;;;;;7.03;4.70;;;;;;;;;;5079902;28;20852;-62
2023/01/21 08:55:58;;;;;;;6.43;4.93;;;;;;;;;;5078170;28;20476;-61
2023/01/21 08:58:26;;;;;;;8.23;4.60;;;;;;;;;;5081897;28;21356;-62
2023/01/21 09:00:54;;;;;;;6.00;4.63;;;;;;;;;;5073367;28;20959;-63
2023/01/21 09:03:22;;;;;;;9.67;5.00;;;;;;;;;;5085267;28;20821;-64
2023/01/21 09:05:51;;;;;;;6.80;5.10;;;;;;;;;;5079270;28;20440;-62
2023/01/21 09:08:19;;;;;;;7.97;4.17;;;;;;;;;;5076663;28;20438;-63
2023/01/21 09:11:02;;;;;;;7.10;4.73;;;;;;;;;;5079367;28;20440;-63
2023/01/21 09:13:31;;;;;;;5.73;4.13;;;;;;;;;;5079511;28;20813;-62
2023/01/21 09:15:59;;;;;;;6.77;5.20;;;;;;;;;;5078885;28;20460;-62
2023/01/21 09:18:28;;;;;;;8.77;4.93;;;;;;;;;;5079169;28;20822;-63
2023/01/21 09:21:01;;;;;;;5.70;4.53;;;;;;;;;;5079087;28;20936;-63
2023/01/21 09:23:32;;;;;;;5.80;4.30;;;;;;;;;;5079112;28;20555;-63
2023/01/21 09:26:02;;;;;;;7.23;5.53;;;;;;;;;;5079492;28;20441;-63
2023/01/21 09:28:30;;;;;;;5.47;4.90;;;;;;;;;;5080692;28;20443;-63
2023/01/21 09:30:59;;;;;;;7.43;5.87;;;;;;;;;;5090521;28;20472;-63
2023/01/21 09:33:27;;;;;;;6.57;4.33;;;;;;;;;;5078801;28;20833;-63
2023/01/21 09:35:55;;;;;;;8.27;4.67;;;;;;;;;;5078787;28;20979;-63
2023/01/21 09:38:25;;;;;;;4.77;3.90;;;;;;;;;;5078873;28;20484;-63
2023/01/21 09:40:53;;;;;;;5.47;4.17;;;;;;;;;;5078866;28;20475;-63
2023/01/21 09:43:23;;;;;;;5.33;4.40;;;;;;;;;;5078273;28;20978;-63
2023/01/21 09:45:53;;;;;;;6.97;4.50;;;;;;;;;;5078971;28;20472;-63
2023/01/21 09:48:25;;;;;;;6.03;4.10;;;;;;;;;;5078731;28;20812;-63
2023/01/21 09:50:53;;;;;;;5.47;4.50;;;;;;;;;;5074268;28;20447;-63
2023/01/21 09:53:27;;;;;;;8.23;5.43;;;;;;;;;;5078839;28;20468;-63
2023/01/21 09:55:57;;;;;;;7.30;4.70;;;;;;;;;;5078672;28;20444;-63
2023/01/21 09:58:29;;;;;;;4.63;4.17;;;;;;;;;;5078763;28;20563;-63
2023/01/21 10:00:59;;;;;;;4.77;3.77;;;;;;;;;;5078427;28;20440;-63
2023/01/21 10:03:29;;;;;;;5.50;4.30;;;;;;;;;;5078547;28;20518;-63
2023/01/21 10:06:08;;;;;;;8.00;4.50;;;;;;;;;;5074858;28;20452;-63
2023/01/21 10:08:43;;;;;;;5.63;3.60;;;;;;;;;;5073300;28;20468;-63
2023/01/21 10:11:17;;;;;;;4.23;3.20;;;;;;;;;;5078008;28;20448;-63
2023/01/21 10:14:00;;;;;;;4.53;4.13;;;;;;;;;;5078062;28;20463;-63
2023/01/21 10:16:31;;;;;;;4.80;4.30;;;;;;;;;;5078071;28;20472;-63
2023/01/21 10:19:00;;;;;;;4.93;4.40;;;;;;;;;;5073879;28;21191;-64
2023/01/21 10:21:31;;;;;;;10.30;4.67;;;;;;;;;;5077972;28;20943;-63
2023/01/21 10:24:03;;;;;;;4.07;3.63;;;;;;;;;;5076300;28;20461;-63
2023/01/21 10:26:31;;;;;;;4.63;4.10;;;;;;;;;;5077966;28;20468;-63
2023/01/21 10:29:00;;;;;;;5.30;4.13;;;;;;;;;;5077883;28;20445;-64
2023/01/21 10:31:29;;;;;;;5.63;4.73;;;;;;;;;;5077656;28;20528;-63
2023/01/21 10:33:57;;;;;;;5.70;4.13;;;;;;;;;;5077796;28;20476;-63
2023/01/21 10:36:43;;;;;;;5.07;3.93;;;;;;;;;;5077919;28;20445;-63
2023/01/21 10:39:17;;;;;;;4.27;3.87;;;;;;;;;;5078021;28;20523;-62
2023/01/21 10:42:00;;;;;;;8.40;4.57;;;;;;;;;;5077601;28;20436;-64
2023/01/21 10:44:30;;;;;;;5.43;4.53;;;;;;;;;;5075115;28;20532;-64
2023/01/21 10:47:02;;;;;;;4.50;4.10;;;;;;;;;;5075193;28;20481;-64
2023/01/21 10:49:45;;;;;;;8.07;4.47;;;;;;;;;;5077740;28;20947;-63
2023/01/21 10:52:16;;;;;;;6.03;4.80;;;;;;;;;;5072826;28;20444;-62
2023/01/21 10:54:48;;;;;;;6.93;4.57;;;;;;;;;;5076737;28;20459;-62
2023/01/21 10:57:21;;;;;;;5.70;4.57;;;;;;;;;;5077888;28;20476;-62
2023/01/21 10:59:50;;;;;;;5.90;4.73;;;;;;;;;;5077731;28;20490;-62
2023/01/21 11:02:22;;;;;;;7.13;5.33;;;;;;;;;;5077398;28;20444;-62
2023/01/21 11:04:50;;;;;;;6.00;4.40;;;;;;;;;;5064760;28;20448;-63
2023/01/21 11:07:20;;;;;;;5.00;4.17;;;;;;;;;;5077721;28;20524;-62
2023/01/21 11:09:49;;;;;;;5.33;4.37;;;;;;;;;;5074441;28;20425;-62
2023/01/21 11:12:19;;;;;;;8.70;4.87;;;;;;;;;;5076450;28;20885;-62
2023/01/21 11:14:49;;;;;;;6.93;3.77;;;;;;;;;;5075948;28;20460;-62
2023/01/21 11:17:29;;;;;;;4.93;3.87;;;;;;;;;;5077360;28;20487;-62
2023/01/21 11:20:01;;;;;;;4.40;3.70;;;;;;;;;;5077132;28;20483;-62
2023/01/21 11:22:31;;;;;;;7.80;3.60;;;;;;;;;;5076874;28;20939;-62
2023/01/21 11:25:01;;;;;;;4.13;3.20;;;;;;;;;;5077691;28;20444;-62
2023/01/21 11:27:33;;;;;;;8.13;3.37;;;;;;;;;;5071533;28;20437;-62
2023/01/21 11:30:01;;;;;;;4.13;3.30;;;;;;;;;;5077099;28;20475;-62
2023/01/21 11:32:30;;;;;;;5.93;3.60;;;;;;;;;;5076562;28;21012;-62
2023/01/21 11:35:01;;;;;;;3.53;3.00;;;;;;;;;;5077093;28;20472;-62
2023/01/21 11:37:30;;;;;;;4.20;3.17;;;;;;;;;;5068693;28;20872;-62
2023/01/21 11:40:00;;;;;;;3.60;3.30;;;;;;;;;;5077037;28;20909;-62
2023/01/21 11:42:28;;;;;;;4.33;3.40;;;;;;;;;;5077013;28;20466;-62
2023/01/21 11:44:57;;;;;;;6.40;4.70;;;;;;;;;;5077388;28;20448;-62
2023/01/21 11:47:27;;;;;;;6.17;3.47;;;;;;;;;;5077178;28;20444;-62
2023/01/21 11:50:01;;;;;;;5.17;3.63;;;;;;;;;;5077253;28;20437;-62
2023/01/21 11:52:29;;;;;;;6.00;3.87;;;;;;;;;;5077300;28;20452;-61
2023/01/21 11:54:57;;;;;;;4.87;3.50;;;;;;;;;;5077270;28;20527;-62
2023/01/21 11:57:28;;;;;;;4.20;3.33;;;;;;;;;;5077429;28;20479;-62
2023/01/21 11:59:59;;;;;;;6.00;3.90;;;;;;;;;;5077501;28;20485;-62
2023/01/21 12:02:29;;;;;;;3.77;3.30;;;;;;;;;;5076504;28;20506;-62
2023/01/21 12:04:59;;;;;;;4.10;3.07;;;;;;;;;;5078102;28;20444;-62
2023/01/21 12:07:28;;;;;;;3.23;2.90;;;;;;;;;;5080785;28;20444;-62
2023/01/21 12:10:06;;;;;;;4.43;3.07;;;;;;;;;;5080915;28;20479;-62
2023/01/21 12:12:49;;;;;;;4.83;3.10;;;;;;;;;;5080676;28;20959;-62
2023/01/21 12:15:27;;;;;;;3.33;2.97;;;;;;;;;;5079621;28;20484;-61
2023/01/21 12:18:02;;;;;;;3.60;2.90;;;;;;;;;;5080219;28;20471;-61
2023/01/21 12:20:33;;;;;;;4.67;2.90;;;;;;;;;;5080345;28;20579;-61
2023/01/21 12:23:17;;;;;;;6.93;3.17;;;;;;;;;;5080087;28;20488;-61
2023/01/21 12:25:49;;;;;;;3.17;2.73;;;;;;;;;;5080660;28;20444;-61
2023/01/21 12:28:28;;;;;;;4.43;3.00;;;;;;;;;;5080570;28;20444;-61
2023/01/21 12:31:01;;;;;;;3.63;3.00;;;;;;;;;;5080198;28;21017;-62
2023/01/21 12:33:37;;;;;;;3.53;3.23;;;;;;;;;;5080404;28;20480;-61
2023/01/21 12:36:07;;;;;;;4.40;3.30;;;;;;;;;;5079984;28;20534;-61
2023/01/21 12:38:36;;;;;;;3.30;3.00;;;;;;;;;;5080013;28;20480;-61
2023/01/21 12:41:05;;;;;;;3.33;2.67;;;;;;;;;;5080121;28;20484;-61
2023/01/21 12:43:35;;;;;;;3.20;2.90;;;;;;;;;;5080241;28;20467;-61
2023/01/21 12:46:09;;;;;;;4.77;2.50;;;;;;;;;;5079988;28;20475;-61
2023/01/21 12:48:40;;;;;;;4.30;2.80;;;;;;;;;;5080256;28;20481;-61
2023/01/21 12:51:11;;;;;;;4.27;3.00;;;;;;;;;;5079799;28;20432;-62
2023/01/21 12:53:42;;;;;;;3.73;2.70;;;;;;;;;;5075472;28;20481;-61
2023/01/21 12:56:17;;;;;;;5.83;2.80;;;;;;;;;;5075680;28;20444;-62
2023/01/21 12:58:50;;;;;;;5.60;3.17;;;;;;;;;;5079775;28;21011;-61
2023/01/21 13:01:23;;;;;;;3.40;2.63;;;;;;;;;;5079430;28;20587;-60
2023/01/21 13:03:55;;;;;;;3.97;2.97;;;;;;;;;;5079876;28;20456;-60
2023/01/21 13:06:25;;;;;;;5.33;3.27;;;;;;;;;;5079753;28;20480;-60
2023/01/21 13:09:18;;;;;;;3.73;3.07;;;;;;;;;;5079346;28;20487;-61
2023/01/21 13:11:49;;;;;;;3.20;2.90;;;;;;;;;;5079928;28;20451;-60
2023/01/21 13:14:23;;;;;;;5.83;3.20;;;;;;;;;;5079383;28;20460;-60
2023/01/21 13:16:54;;;;;;;3.67;3.20;;;;;;;;;;5078214;28;20472;-60
2023/01/21 13:19:22;;;;;;;3.70;3.13;;;;;;;;;;5079115;28;20931;-61
2023/01/21 13:21:52;;;;;;;3.47;2.67;;;;;;;;;;5074631;28;20963;-60
2023/01/21 13:24:23;;;;;;;2.97;2.77;;;;;;;;;;5075735;28;21003;-60
2023/01/21 13:26:55;;;;;;;3.27;2.93;;;;;;;;;;5070293;28;20437;-61
2023/01/21 13:29:32;;;;;;;3.10;2.50;;;;;;;;;;5067637;28;20486;-61
2023/01/21 13:32:12;;;;;;;5.47;2.90;;;;;;;;;;5074049;28;20441;-61
2023/01/21 13:34:42;;;;;;;3.60;2.30;;;;;;;;;;5075804;28;20476;-61
2023/01/21 13:37:13;;;;;;;5.47;2.80;;;;;;;;;;5072200;28;20920;-61
2023/01/21 13:39:44;;;;;;;11.67;2.63;;;;;;;;;;5073181;28;21007;-61
2023/01/21 13:42:23;;;;;;;3.83;2.00;;;;;;;;;;5075754;28;20927;-61
2023/01/21 13:45:12;;;;;;;3.23;2.40;;;;;;;;;;5078639;28;20943;-61
2023/01/21 13:47:50;;;;;;;4.07;2.40;;;;;;;;;;5076708;28;20456;-61
2023/01/21 13:50:23;;;;;;;3.83;2.17;;;;;;;;;;5078644;28;20436;-61
2023/01/21 13:52:58;;;;;;;4.23;2.37;;;;;;;;;;5078281;28;20473;-61
2023/01/21 13:55:32;;;;;;;2.30;2.10;;;;;;;;;;5078637;28;20467;-61
2023/01/21 13:58:02;;;;;;;3.13;2.30;;;;;;;;;;5074111;28;20527;-61
2023/01/21 14:00:32;;;;;;;3.87;2.40;;;;;;;;;;5078201;28;21007;-61
2023/01/21 14:03:05;;;;;;;2.37;2.17;;;;;;;;;;5078546;28;20793;-61
2023/01/21 14:05:36;;;;;;;3.37;2.50;;;;;;;;;;5078294;28;20491;-61
2023/01/21 14:08:07;;;;;;;2.90;2.60;;;;;;;;;;5078731;28;20498;-61
2023/01/21 14:10:39;;;;;;;4.07;2.30;;;;;;;;;;5078559;28;20440;-61
2023/01/21 14:13:31;;;;;;;3.23;2.47;;;;;;;;;;5078528;28;20468;-61
2023/01/21 14:16:08;;;;;;;2.53;2.33;;;;;;;;;;5072538;28;20503;-61
2023/01/21 14:18:49;;;;;;;2.80;2.60;;;;;;;;;;5078548;28;20444;-61
2023/01/21 14:21:36;;;;;;;2.97;2.70;;;;;;;;;;5067359;28;20490;-61
2023/01/21 14:24:08;;;;;;;2.03;1.83;;;;;;;;;;5077942;28;20824;-62
2023/01/21 14:26:43;;;;;;;2.90;2.57;;;;;;;;;;5078614;28;20441;-62
2023/01/21 14:29:16;;;;;;;2.40;2.20;;;;;;;;;;5077900;28;20448;-61
2023/01/21 14:31:45;;;;;;;2.93;2.50;;;;;;;;;;5077645;28;20870;-61
2023/01/21 14:34:16;;;;;;;2.60;2.40;;;;;;;;;;5077554;28;20534;-61
2023/01/21 14:36:48;;;;;;;3.97;2.30;;;;;;;;;;5077774;28;20974;-61
2023/01/21 14:39:23;;;;;;;2.30;2.10;;;;;;;;;;5078222;28;20562;-61
2023/01/21 14:41:54;;;;;;;3.40;2.23;;;;;;;;;;5077864;28;20478;-61
2023/01/21 14:44:35;;;;;;;1.90;1.67;;;;;;;;;;5077732;28;20489;-61
2023/01/21 14:47:13;;;;;;;2.30;2.20;;;;;;;;;;5077828;28;20447;-61
2023/01/21 14:49:44;;;;;;;2.23;2.13;;;;;;;;;;5077575;28;20448;-61
2023/01/21 14:52:16;;;;;;;2.83;2.50;;;;;;;;;;5078052;28;20441;-61
2023/01/21 14:54:45;;;;;;;3.07;2.27;;;;;;;;;;5077952;28;20445;-61
2023/01/21 14:57:28;;;;;;;2.20;2.00;;;;;;;;;;5078059;28;20446;-61
2023/01/21 15:00:03;;;;;;;2.63;2.43;;;;;;;;;;5071250;28;20455;-61
2023/01/21 15:02:32;;;;;;;6.47;2.10;;;;;;;;;;5072509;28;20472;-61
2023/01/21 15:05:03;;;;;;;6.57;2.60;;;;;;;;;;5077474;28;20852;-61